createdAt,value
2018-06-22T00:00:38.657Z,8.60
2018-06-22T00:01:38.605Z,12.00
2018-06-22T00:02:38.676Z,7.90
2018-06-22T00:03:38.559Z,7.20
2018-06-22T00:04:38.583Z,10.80
2018-06-22T00:05:38.512Z,11.00
2018-06-22T00:06:38.595Z,10.90
2018-06-22T00:07:38.453Z,9.30
2018-06-22T00:08:38.511Z,7.00
2018-06-22T00:09:38.412Z,9.40
2018-06-22T00:10:38.418Z,10.40
2018-06-22T00:11:38.359Z,9.20
2018-06-22T00:12:38.434Z,7.90
2018-06-22T00:13:38.308Z,8.50
2018-06-22T00:14:38.347Z,6.80
2018-06-22T00:15:38.256Z,8.60
2018-06-22T00:16:38.340Z,10.00
2018-06-22T00:17:38.205Z,8.50
2018-06-22T00:18:38.269Z,7.40
2018-06-22T00:19:38.167Z,8.00
2018-06-22T00:20:38.181Z,11.50
2018-06-22T00:21:38.118Z,7.70
2018-06-22T00:22:38.196Z,8.10
2018-06-22T00:23:38.047Z,8.40
2018-06-22T00:24:38.110Z,9.40
2018-06-22T00:25:38.011Z,8.40
2018-06-22T00:26:38.025Z,10.00
2018-06-22T00:27:37.958Z,8.50
2018-06-22T00:28:38.035Z,8.90
2018-06-22T00:29:37.894Z,11.00
2018-06-22T00:30:37.947Z,9.20
2018-06-22T00:31:37.860Z,8.60
2018-06-22T00:32:37.860Z,10.30
2018-06-22T00:33:37.795Z,7.40
2018-06-22T00:34:37.876Z,10.90
2018-06-22T00:35:37.760Z,8.70
2018-06-22T00:36:37.788Z,8.50
2018-06-22T00:37:37.713Z,9.20
2018-06-22T00:38:37.799Z,7.60
2018-06-22T00:39:37.649Z,8.10
2018-06-22T00:40:37.711Z,11.40
2018-06-22T00:41:37.611Z,9.10
2018-06-22T00:42:37.628Z,8.10
2018-06-22T00:43:37.555Z,6.40
2018-06-22T00:44:37.639Z,10.30
2018-06-22T00:45:37.511Z,8.90
2018-06-22T00:46:37.552Z,10.30
2018-06-22T00:47:37.456Z,8.60
2018-06-22T00:48:37.466Z,10.00
2018-06-22T00:49:37.399Z,10.70
2018-06-22T00:50:37.498Z,8.60
2018-06-22T00:51:37.355Z,10.10
2018-06-22T00:52:37.388Z,11.30
2018-06-22T00:53:37.307Z,9.00
2018-06-22T00:54:37.302Z,9.50
2018-06-22T00:55:37.252Z,6.80
2018-06-22T00:56:37.314Z,6.40
2018-06-22T00:57:37.200Z,9.00
2018-06-22T00:58:37.227Z,7.70
2018-06-22T00:59:37.148Z,7.30
2018-06-22T01:00:37.238Z,8.30
2018-06-22T01:01:37.096Z,8.70
2018-06-22T01:02:37.150Z,9.40
2018-06-22T01:03:37.062Z,6.00
2018-06-22T01:04:37.061Z,9.10
2018-06-22T01:05:36.999Z,8.00
2018-06-22T01:06:37.093Z,6.70
2018-06-22T01:07:36.956Z,9.90
2018-06-22T01:08:36.986Z,9.50
2018-06-22T01:09:36.907Z,8.90
2018-06-22T01:10:36.898Z,8.30
2018-06-22T01:11:36.848Z,7.90
2018-06-22T01:12:36.911Z,8.50
2018-06-22T01:13:36.799Z,8.10
2018-06-22T01:14:36.823Z,8.70
2018-06-22T01:15:36.751Z,11.90
2018-06-22T01:16:36.737Z,8.00
2018-06-22T01:17:36.698Z,7.50
2018-06-22T01:18:36.751Z,6.50
2018-06-22T01:19:36.650Z,9.50
2018-06-22T01:20:36.662Z,10.10
2018-06-22T01:21:36.596Z,10.40
2018-06-22T01:22:36.675Z,6.10
2018-06-22T01:23:36.548Z,9.10
2018-06-22T01:24:36.588Z,8.50
2018-06-22T01:25:36.505Z,5.40
2018-06-22T01:26:36.503Z,6.40
2018-06-22T01:27:36.444Z,9.30
2018-06-22T01:28:36.512Z,7.50
2018-06-22T01:29:36.398Z,7.00
2018-06-22T01:30:36.432Z,6.90
2018-06-22T01:31:36.342Z,12.90
2018-06-22T01:32:36.341Z,8.40
2018-06-22T01:33:36.290Z,10.20
2018-06-22T01:34:36.350Z,8.50
2018-06-22T01:35:36.247Z,7.90
2018-06-22T01:36:36.261Z,10.50
2018-06-22T01:37:36.192Z,8.60
2018-06-22T01:38:36.281Z,7.60
2018-06-22T01:39:36.145Z,8.60
2018-06-22T01:40:36.191Z,9.90
2018-06-22T01:41:36.091Z,6.50
2018-06-22T01:42:36.101Z,9.20
2018-06-22T01:43:36.040Z,10.10
2018-06-22T01:44:36.127Z,7.40
2018-06-22T01:45:35.992Z,7.40
2018-06-22T01:46:36.030Z,8.00
2018-06-22T01:47:35.940Z,10.30
2018-06-22T01:48:35.939Z,10.30
2018-06-22T01:49:35.885Z,8.60
2018-06-22T01:50:35.955Z,8.90
2018-06-22T01:51:35.839Z,7.40
2018-06-22T01:52:35.868Z,7.40
2018-06-22T01:53:35.787Z,8.90
2018-06-22T01:54:35.881Z,10.40
2018-06-22T01:55:35.738Z,9.20
2018-06-22T01:56:35.792Z,9.20
2018-06-22T01:57:35.688Z,8.10
2018-06-22T01:58:35.703Z,8.20
2018-06-22T01:59:35.644Z,12.60
2018-06-22T02:00:35.722Z,13.20
2018-06-22T02:01:35.595Z,7.60
2018-06-22T02:02:35.628Z,8.30
2018-06-22T02:03:35.551Z,10.40
2018-06-22T02:04:35.530Z,9.70
2018-06-22T02:05:35.481Z,10.10
2018-06-22T02:06:35.556Z,9.00
2018-06-22T02:07:35.433Z,6.80
2018-06-22T02:08:35.466Z,8.20
2018-06-22T02:09:35.380Z,9.30
2018-06-22T02:10:35.377Z,9.10
2018-06-22T02:11:35.330Z,9.70
2018-06-22T02:12:35.393Z,8.70
2018-06-22T02:13:35.277Z,10.40
2018-06-22T02:14:35.321Z,11.10
2018-06-22T02:15:35.231Z,7.40
2018-06-22T02:16:35.333Z,8.50
2018-06-22T02:17:35.178Z,7.70
2018-06-22T02:18:35.228Z,8.70
2018-06-22T02:19:35.142Z,6.80
2018-06-22T02:20:35.138Z,10.10
2018-06-22T02:21:35.077Z,8.00
2018-06-22T02:22:35.152Z,6.40
2018-06-22T02:23:35.030Z,9.40
2018-06-22T02:24:35.065Z,8.90
2018-06-22T02:25:34.974Z,7.50
2018-06-22T02:26:34.976Z,9.20
2018-06-22T02:27:34.942Z,7.30
2018-06-22T02:28:34.990Z,8.30
2018-06-22T02:29:34.870Z,10.90
2018-06-22T02:30:34.907Z,7.90
2018-06-22T02:31:34.822Z,10.50
2018-06-22T02:32:34.828Z,8.20
2018-06-22T02:33:34.770Z,7.80
2018-06-22T02:34:34.833Z,7.70
2018-06-22T02:35:34.716Z,9.30
2018-06-22T02:36:34.743Z,8.80
2018-06-22T02:37:34.661Z,8.60
2018-06-22T02:38:34.656Z,9.20
2018-06-22T02:39:34.624Z,7.80
2018-06-22T02:40:34.669Z,7.00
2018-06-22T02:41:34.565Z,10.30
2018-06-22T02:42:34.580Z,9.10
2018-06-22T02:43:34.509Z,8.90
2018-06-22T02:44:34.620Z,9.30
2018-06-22T02:45:34.461Z,9.80
2018-06-22T02:46:34.514Z,6.10
2018-06-22T02:47:34.412Z,7.70
2018-06-22T02:48:34.428Z,9.30
2018-06-22T02:49:34.357Z,8.60
2018-06-22T02:50:34.463Z,7.50
2018-06-22T02:51:34.308Z,7.80
2018-06-22T02:52:34.361Z,8.60
2018-06-22T02:53:34.254Z,9.30
2018-06-22T02:54:34.263Z,8.90
2018-06-22T02:55:34.206Z,8.70
2018-06-22T02:56:34.275Z,8.70
2018-06-22T02:57:34.155Z,7.90
2018-06-22T02:58:34.185Z,9.60
2018-06-22T02:59:34.102Z,9.20
2018-06-22T03:00:34.200Z,8.40
2018-06-22T03:01:34.059Z,9.60
2018-06-22T03:02:34.111Z,10.30
2018-06-22T03:03:33.999Z,10.40
2018-06-22T03:04:34.022Z,7.80
2018-06-22T03:05:33.944Z,6.60
2018-06-22T03:06:34.036Z,7.80
2018-06-22T03:07:33.895Z,9.00
2018-06-22T03:08:33.940Z,10.40
2018-06-22T03:09:33.853Z,9.90
2018-06-22T03:10:33.858Z,8.30
2018-06-22T03:11:33.799Z,8.30
2018-06-22T03:12:33.877Z,8.70
2018-06-22T03:13:33.741Z,6.10
2018-06-22T03:14:33.783Z,7.60
2018-06-22T03:15:33.688Z,7.20
2018-06-22T03:16:33.796Z,9.40
2018-06-22T03:17:33.643Z,10.80
2018-06-22T03:18:33.707Z,9.30
2018-06-22T03:19:33.595Z,5.50
2018-06-22T03:20:33.623Z,7.30
2018-06-22T03:21:33.537Z,9.00
2018-06-22T03:22:33.533Z,6.20
2018-06-22T03:23:33.491Z,8.60
2018-06-22T03:24:33.545Z,6.70
2018-06-22T03:25:33.455Z,7.90
2018-06-22T03:26:33.456Z,7.10
2018-06-22T03:27:33.384Z,7.20
2018-06-22T03:28:33.469Z,6.60
2018-06-22T03:29:33.331Z,9.60
2018-06-22T03:30:33.400Z,9.00
2018-06-22T03:31:33.287Z,9.20
2018-06-22T03:32:33.293Z,8.60
2018-06-22T03:33:33.234Z,7.90
2018-06-22T03:34:33.311Z,11.60
2018-06-22T03:35:33.178Z,7.50
2018-06-22T03:36:33.218Z,7.70
2018-06-22T03:37:33.124Z,10.80
2018-06-22T03:38:33.134Z,8.80
2018-06-22T03:39:33.131Z,9.10
2018-06-22T03:40:33.149Z,7.60
2018-06-22T03:41:33.030Z,10.30
2018-06-22T03:42:33.057Z,8.70
2018-06-22T03:43:32.970Z,9.60
2018-06-22T03:44:32.971Z,7.40
2018-06-22T03:45:32.924Z,6.90
2018-06-22T03:46:32.985Z,9.80
2018-06-22T03:47:32.870Z,9.50
2018-06-22T03:48:32.904Z,9.10
2018-06-22T03:49:32.817Z,10.70
2018-06-22T03:50:32.804Z,8.20
2018-06-22T03:51:32.765Z,8.60
2018-06-22T03:52:32.823Z,7.30
2018-06-22T03:53:32.713Z,10.80
2018-06-22T03:54:32.731Z,10.60
2018-06-22T03:55:32.665Z,11.90
2018-06-22T03:56:33.671Z,8.90
2018-06-22T03:57:32.614Z,7.50
2018-06-22T03:58:32.654Z,6.50
2018-06-22T03:59:32.567Z,8.00
2018-06-22T04:00:32.566Z,7.30
2018-06-22T04:01:32.508Z,7.20
2018-06-22T04:02:32.585Z,11.70
2018-06-22T04:03:32.465Z,9.20
2018-06-22T04:04:32.501Z,9.10
2018-06-22T04:05:32.405Z,9.00
2018-06-22T04:06:32.409Z,9.80
2018-06-22T04:07:32.361Z,9.60
2018-06-22T04:08:32.425Z,9.90
2018-06-22T04:09:32.301Z,8.50
2018-06-22T04:10:32.334Z,7.10
2018-06-22T04:11:32.251Z,7.20
2018-06-22T04:12:32.247Z,8.30
2018-06-22T04:13:32.215Z,10.40
2018-06-22T04:14:32.263Z,7.40
2018-06-22T04:15:32.146Z,9.10
2018-06-22T04:16:32.177Z,7.90
2018-06-22T04:17:32.101Z,6.80
2018-06-22T04:18:32.079Z,9.60
2018-06-22T04:19:32.048Z,7.70
2018-06-22T04:20:32.100Z,7.90
2018-06-22T04:21:31.990Z,8.50
2018-06-22T04:22:32.008Z,8.80
2018-06-22T04:23:31.940Z,8.40
2018-06-22T04:24:32.078Z,8.80
2018-06-22T04:25:31.889Z,5.20
2018-06-22T04:26:31.936Z,11.40
2018-06-22T04:27:31.840Z,10.80
2018-06-22T04:28:31.859Z,8.40
2018-06-22T04:29:31.794Z,6.70
2018-06-22T04:30:31.861Z,11.20
2018-06-22T04:31:31.738Z,9.90
2018-06-22T04:32:31.772Z,7.90
2018-06-22T04:33:31.686Z,6.10
2018-06-22T04:34:31.686Z,5.90
2018-06-22T04:35:31.631Z,10.40
2018-06-22T04:36:31.698Z,8.30
2018-06-22T04:37:31.573Z,8.00
2018-06-22T04:38:31.617Z,12.00
2018-06-22T04:39:31.530Z,8.60
2018-06-22T04:40:31.521Z,10.20
2018-06-22T04:41:31.480Z,6.00
2018-06-22T04:42:31.536Z,10.80
2018-06-22T04:43:31.426Z,7.80
2018-06-22T04:44:31.446Z,6.30
2018-06-22T04:45:31.382Z,10.20
2018-06-22T04:46:31.460Z,10.00
2018-06-22T04:47:31.364Z,6.00
2018-06-22T04:48:31.378Z,9.10
2018-06-22T04:49:31.277Z,7.50
2018-06-22T04:50:31.286Z,6.40
2018-06-22T04:51:31.228Z,9.40
2018-06-22T04:52:31.302Z,8.70
2018-06-22T04:53:31.170Z,6.60
2018-06-22T04:54:31.212Z,7.10
2018-06-22T04:55:31.122Z,9.60
2018-06-22T04:56:31.126Z,8.90
2018-06-22T04:57:31.074Z,9.20
2018-06-22T04:58:31.140Z,8.90
2018-06-22T04:59:31.020Z,7.90
2018-06-22T05:00:31.048Z,5.70
2018-06-22T05:01:30.971Z,7.80
2018-06-22T05:02:30.962Z,9.60
2018-06-22T05:03:30.983Z,7.80
2018-06-22T05:04:30.979Z,5.60
2018-06-22T05:05:30.862Z,6.70
2018-06-22T05:06:30.889Z,7.10
2018-06-22T05:07:30.823Z,8.70
2018-06-22T05:08:30.904Z,9.00
2018-06-22T05:09:30.767Z,10.40
2018-06-22T05:10:30.817Z,6.40
2018-06-22T05:11:30.717Z,7.30
2018-06-22T05:12:30.738Z,5.90
2018-06-22T05:13:30.665Z,9.20
2018-06-22T05:14:30.740Z,8.60
2018-06-22T05:15:30.620Z,8.40
2018-06-22T05:16:30.653Z,7.10
2018-06-22T05:17:30.569Z,8.00
2018-06-22T05:18:30.584Z,9.10
2018-06-22T05:19:30.522Z,9.70
2018-06-22T05:20:30.579Z,10.20
2018-06-22T05:21:30.464Z,12.50
2018-06-22T05:22:30.488Z,8.60
2018-06-22T05:23:30.421Z,11.00
2018-06-22T05:24:30.401Z,7.50
2018-06-22T05:25:30.390Z,7.60
2018-06-22T05:26:30.415Z,8.60
2018-06-22T05:27:30.312Z,5.30
2018-06-22T05:28:30.330Z,9.50
2018-06-22T05:29:30.260Z,8.10
2018-06-22T05:30:30.343Z,8.50
2018-06-22T05:31:30.215Z,8.30
2018-06-22T05:32:30.259Z,9.20
2018-06-22T05:33:30.165Z,10.30
2018-06-22T05:34:30.165Z,12.30
2018-06-22T05:35:30.117Z,6.60
2018-06-22T05:36:30.184Z,6.90
2018-06-22T05:37:30.065Z,8.10
2018-06-22T05:38:30.092Z,8.40
2018-06-22T05:39:30.018Z,9.80
2018-06-22T05:40:30.107Z,7.80
2018-06-22T05:41:29.978Z,7.80
2018-06-22T05:42:30.018Z,10.00
2018-06-22T05:43:29.909Z,8.30
2018-06-22T05:44:29.926Z,7.90
2018-06-22T05:45:29.890Z,9.20
2018-06-22T05:46:29.947Z,9.70
2018-06-22T05:47:29.816Z,6.80
2018-06-22T05:48:29.856Z,7.90
2018-06-22T05:49:29.774Z,8.90
2018-06-22T05:50:29.768Z,8.20
2018-06-22T05:51:29.715Z,5.50
2018-06-22T05:52:29.781Z,9.00
2018-06-22T05:53:29.667Z,10.20
2018-06-22T05:54:29.696Z,11.00
2018-06-22T05:55:29.618Z,11.00
2018-06-22T05:56:29.747Z,7.20
2018-06-22T05:57:29.575Z,9.20
2018-06-22T05:58:29.623Z,11.90
2018-06-22T05:59:29.519Z,8.00
2018-06-22T06:00:29.538Z,7.80
2018-06-22T06:01:29.471Z,9.10
2018-06-22T06:02:29.547Z,8.30
2018-06-22T06:03:29.431Z,8.20
2018-06-22T06:04:29.458Z,9.20
2018-06-22T06:05:29.375Z,9.00
2018-06-22T06:06:29.370Z,10.00
2018-06-22T06:07:29.321Z,7.50
2018-06-22T06:08:29.384Z,6.00
2018-06-22T06:09:29.273Z,7.60
2018-06-22T06:10:29.296Z,11.60
2018-06-22T06:11:29.226Z,8.10
2018-06-22T06:12:29.353Z,7.30
2018-06-22T06:13:29.170Z,9.30
2018-06-22T06:14:29.223Z,12.70
2018-06-22T06:15:29.125Z,7.20
2018-06-22T06:16:29.134Z,8.50
2018-06-22T06:17:29.072Z,7.00
2018-06-22T06:18:29.151Z,11.70
2018-06-22T06:19:29.026Z,9.30
2018-06-22T06:20:29.059Z,7.70
2018-06-22T06:21:28.974Z,8.80
2018-06-22T06:22:28.969Z,8.30
2018-06-22T06:23:28.930Z,11.10
2018-06-22T06:24:28.984Z,9.70
2018-06-22T06:25:28.872Z,7.60
2018-06-22T06:26:28.894Z,9.10
2018-06-22T06:27:28.827Z,9.20
2018-06-22T06:28:28.911Z,7.20
2018-06-22T06:29:28.778Z,7.30
2018-06-22T06:30:28.820Z,6.90
2018-06-22T06:31:28.733Z,11.60
2018-06-22T06:32:28.732Z,9.40
2018-06-22T06:33:28.680Z,9.50
2018-06-22T06:34:28.747Z,9.10
2018-06-22T06:35:28.630Z,8.10
2018-06-22T06:36:28.659Z,11.10
2018-06-22T06:37:28.587Z,12.10
2018-06-22T06:38:28.672Z,8.90
2018-06-22T06:39:28.534Z,7.60
2018-06-22T06:40:28.588Z,10.50
2018-06-22T06:41:28.484Z,7.60
2018-06-22T06:42:28.494Z,8.40
2018-06-22T06:43:28.439Z,7.70
2018-06-22T06:44:28.511Z,10.50
2018-06-22T06:45:28.388Z,10.80
2018-06-22T06:46:28.422Z,8.20
2018-06-22T06:47:28.339Z,7.80
2018-06-22T06:48:28.331Z,10.20
2018-06-22T06:49:28.341Z,9.00
2018-06-22T06:50:28.348Z,11.60
2018-06-22T06:51:28.245Z,10.70
2018-06-22T06:52:28.257Z,11.50
2018-06-22T06:53:28.193Z,9.00
2018-06-22T06:54:28.272Z,11.60
2018-06-22T06:55:28.144Z,13.60
2018-06-22T06:56:28.189Z,10.80
2018-06-22T06:57:28.095Z,7.60
2018-06-22T06:58:28.100Z,9.90
2018-06-22T06:59:28.050Z,9.30
2018-06-22T07:00:28.113Z,10.80
2018-06-22T07:01:27.998Z,7.90
2018-06-22T07:02:28.076Z,9.30
2018-06-22T07:03:27.951Z,8.30
2018-06-22T07:04:28.041Z,11.90
2018-06-22T07:05:27.940Z,11.00
2018-06-22T07:06:27.950Z,9.00
2018-06-22T07:07:27.858Z,7.70
2018-06-22T07:08:27.890Z,9.70
2018-06-22T07:09:27.807Z,9.10
2018-06-22T07:10:27.875Z,11.80
2018-06-22T07:11:27.757Z,12.30
2018-06-22T07:12:27.791Z,10.10
2018-06-22T07:13:27.727Z,11.90
2018-06-22T07:14:27.853Z,10.50
2018-06-22T07:15:27.667Z,10.00
2018-06-22T07:16:27.714Z,11.60
2018-06-22T07:17:27.618Z,8.80
2018-06-22T07:18:27.626Z,11.90
2018-06-22T07:19:27.569Z,11.00
2018-06-22T07:20:27.640Z,11.60
2018-06-22T07:21:27.520Z,10.20
2018-06-22T07:22:27.552Z,7.90
2018-06-22T07:23:27.498Z,10.50
2018-06-22T07:24:27.569Z,11.50
2018-06-22T07:25:27.430Z,10.90
2018-06-22T07:26:27.477Z,10.00
2018-06-22T07:27:27.381Z,11.50
2018-06-22T07:28:27.395Z,9.40
2018-06-22T07:29:27.326Z,13.30
2018-06-22T07:30:27.399Z,12.70
2018-06-22T07:31:27.281Z,10.30
2018-06-22T07:32:27.312Z,11.00
2018-06-22T07:33:27.236Z,13.10
2018-06-22T07:34:27.327Z,14.20
2018-06-22T07:35:27.191Z,11.40
2018-06-22T07:36:27.238Z,14.20
2018-06-22T07:37:27.141Z,10.60
2018-06-22T07:38:27.152Z,12.40
2018-06-22T07:39:27.089Z,11.00
2018-06-22T07:40:27.163Z,12.30
2018-06-22T07:41:27.048Z,10.80
2018-06-22T07:42:27.080Z,8.60
2018-06-22T07:43:27.000Z,11.90
2018-06-22T07:44:27.095Z,13.00
2018-06-22T07:45:26.966Z,8.50
2018-06-22T07:46:27.003Z,13.50
2018-06-22T07:47:26.904Z,11.50
2018-06-22T07:48:26.913Z,11.80
2018-06-22T07:49:26.859Z,12.10
2018-06-22T07:50:26.926Z,12.80
2018-06-22T07:51:26.812Z,13.10
2018-06-22T07:52:26.841Z,12.90
2018-06-22T07:53:26.767Z,13.60
2018-06-22T07:54:26.861Z,13.90
2018-06-22T07:55:26.718Z,12.10
2018-06-22T07:56:26.766Z,12.40
2018-06-22T07:57:26.675Z,16.90
2018-06-22T07:58:26.679Z,14.10
2018-06-22T07:59:26.622Z,14.30
2018-06-22T08:00:26.692Z,14.90
2018-06-22T08:01:26.576Z,12.80
2018-06-22T08:02:26.603Z,11.70
2018-06-22T08:03:26.533Z,12.70
2018-06-22T08:04:26.616Z,19.50
2018-06-22T08:05:26.483Z,14.30
2018-06-22T08:06:26.531Z,13.70
2018-06-22T08:07:26.442Z,13.40
2018-06-22T08:08:26.443Z,12.20
2018-06-22T08:09:26.391Z,11.50
2018-06-22T08:10:26.457Z,13.90
2018-06-22T08:11:26.358Z,13.50
2018-06-22T08:12:26.365Z,13.80
2018-06-22T08:13:26.298Z,11.20
2018-06-22T08:14:26.381Z,12.50
2018-06-22T08:15:26.252Z,14.10
2018-06-22T08:16:26.294Z,13.80
2018-06-22T08:17:26.205Z,13.30
2018-06-22T08:18:26.212Z,12.20
2018-06-22T08:19:26.164Z,16.30
2018-06-22T08:20:26.217Z,13.80
2018-06-22T08:21:26.117Z,13.10
2018-06-22T08:22:26.128Z,13.80
2018-06-22T08:23:26.066Z,15.80
2018-06-22T08:24:26.147Z,16.80
2018-06-22T08:25:26.019Z,13.30
2018-06-22T08:26:26.056Z,14.90
2018-06-22T08:27:25.973Z,14.20
2018-06-22T08:28:25.967Z,13.00
2018-06-22T08:29:25.998Z,15.80
2018-06-22T08:30:25.922Z,16.00
2018-06-22T08:31:25.980Z,12.00
2018-06-22T08:32:25.883Z,13.60
2018-06-22T08:33:25.898Z,15.80
2018-06-22T08:34:25.819Z,13.80
2018-06-22T08:35:25.801Z,13.40
2018-06-22T08:36:25.771Z,13.70
2018-06-22T08:37:25.873Z,15.60
2018-06-22T08:38:25.723Z,12.90
2018-06-22T08:39:25.737Z,12.60
2018-06-22T08:40:25.702Z,13.60
2018-06-22T08:41:25.797Z,14.70
2018-06-22T08:42:25.671Z,15.00
2018-06-22T08:43:25.721Z,15.90
2018-06-22T08:44:25.623Z,14.50
2018-06-22T08:45:25.603Z,14.80
2018-06-22T08:46:25.552Z,13.30
2018-06-22T08:47:25.639Z,13.90
2018-06-22T08:48:25.520Z,13.50
2018-06-22T08:49:25.541Z,13.10
2018-06-22T08:50:25.616Z,12.50
2018-06-22T08:51:25.527Z,13.40
2018-06-22T08:52:25.408Z,13.50
2018-06-22T08:53:25.461Z,10.80
2018-06-22T08:54:25.351Z,13.00
2018-06-22T08:55:25.464Z,17.50
2018-06-22T08:56:25.309Z,15.70
2018-06-22T08:57:25.409Z,12.30
2018-06-22T08:58:25.277Z,13.50
2018-06-22T08:59:25.269Z,14.10
2018-06-22T09:00:25.216Z,12.90
2018-06-22T09:01:25.314Z,14.20
2018-06-22T09:02:25.177Z,13.60
2018-06-22T09:03:25.193Z,16.00
2018-06-22T09:04:25.126Z,16.20
2018-06-22T09:05:25.210Z,14.20
2018-06-22T09:06:25.081Z,16.60
2018-06-22T09:07:25.119Z,15.40
2018-06-22T09:08:25.034Z,13.00
2018-06-22T09:09:25.031Z,13.10
2018-06-22T09:10:24.988Z,12.20
2018-06-22T09:11:25.045Z,15.40
2018-06-22T09:12:24.952Z,12.10
2018-06-22T09:13:24.952Z,11.50
2018-06-22T09:14:24.939Z,12.20
2018-06-22T09:15:24.969Z,15.70
2018-06-22T09:16:24.853Z,10.20
2018-06-22T09:17:24.881Z,15.60
2018-06-22T09:18:24.807Z,13.80
2018-06-22T09:19:24.900Z,17.50
2018-06-22T09:20:24.764Z,9.00
2018-06-22T09:21:24.803Z,11.80
2018-06-22T09:22:24.722Z,14.90
2018-06-22T09:23:24.717Z,15.40
2018-06-22T09:24:24.686Z,14.60
2018-06-22T09:25:24.758Z,16.00
2018-06-22T09:26:24.631Z,15.80
2018-06-22T09:27:24.644Z,16.10
2018-06-22T09:28:24.590Z,12.70
2018-06-22T09:29:24.663Z,12.90
2018-06-22T09:30:24.541Z,15.80
2018-06-22T09:31:24.591Z,15.20
2018-06-22T09:32:24.498Z,11.20
2018-06-22T09:33:24.586Z,13.20
2018-06-22T09:34:24.456Z,12.60
2018-06-22T09:35:24.497Z,12.40
2018-06-22T09:36:24.411Z,13.00
2018-06-22T09:37:24.415Z,13.90
2018-06-22T09:38:24.370Z,14.60
2018-06-22T09:39:24.426Z,13.40
2018-06-22T09:40:24.321Z,15.60
2018-06-22T09:41:24.341Z,14.00
2018-06-22T09:42:24.280Z,12.70
2018-06-22T09:43:24.355Z,9.20
2018-06-22T09:44:24.233Z,12.20
2018-06-22T09:45:24.259Z,11.70
2018-06-22T09:46:24.193Z,10.50
2018-06-22T09:47:24.278Z,11.60
2018-06-22T09:48:24.240Z,15.00
2018-06-22T09:49:24.190Z,18.10
2018-06-22T09:50:24.097Z,16.90
2018-06-22T09:51:24.095Z,13.20
2018-06-22T09:52:24.061Z,13.00
2018-06-22T09:53:24.115Z,11.10
2018-06-22T09:54:24.019Z,13.30
2018-06-22T09:55:24.041Z,13.20
2018-06-22T09:56:23.972Z,15.50
2018-06-22T09:57:24.071Z,10.20
2018-06-22T09:58:23.930Z,12.70
2018-06-22T09:59:23.949Z,13.40
2018-06-22T10:00:23.888Z,11.50
2018-06-22T10:01:23.968Z,11.70
2018-06-22T10:02:23.845Z,9.50
2018-06-22T10:03:23.880Z,11.30
2018-06-22T10:04:23.834Z,9.00
2018-06-22T10:05:23.896Z,10.40
2018-06-22T10:06:23.758Z,10.30
2018-06-22T10:07:23.805Z,6.50
2018-06-22T10:08:23.711Z,8.70
2018-06-22T10:09:23.717Z,9.70
2018-06-22T10:10:23.675Z,9.30
2018-06-22T10:11:23.743Z,11.00
2018-06-22T10:12:23.635Z,10.30
2018-06-22T10:13:23.635Z,9.80
2018-06-22T10:14:23.590Z,10.00
2018-06-22T10:15:23.656Z,12.90
2018-06-22T10:16:23.557Z,12.00
2018-06-22T10:17:23.575Z,12.90
2018-06-22T10:18:23.507Z,13.40
2018-06-22T10:19:23.576Z,9.40
2018-06-22T10:20:23.456Z,9.40
2018-06-22T10:21:23.493Z,12.20
2018-06-22T10:22:23.417Z,10.90
2018-06-22T10:23:23.500Z,12.60
2018-06-22T10:24:23.372Z,10.90
2018-06-22T10:25:23.413Z,10.30
2018-06-22T10:26:23.326Z,12.40
2018-06-22T10:27:23.359Z,10.30
2018-06-22T10:28:23.288Z,10.30
2018-06-22T10:29:23.340Z,11.80
2018-06-22T10:30:23.245Z,9.40
2018-06-22T10:31:23.254Z,12.30
2018-06-22T10:32:23.206Z,10.00
2018-06-22T10:33:23.272Z,10.10
2018-06-22T10:34:23.170Z,11.80
2018-06-22T10:35:23.181Z,9.70
2018-06-22T10:36:23.119Z,9.50
2018-06-22T10:37:23.195Z,12.90
2018-06-22T10:38:23.075Z,10.00
2018-06-22T10:39:23.104Z,7.70
2018-06-22T10:40:23.035Z,9.40
2018-06-22T10:41:23.119Z,11.10
2018-06-22T10:42:22.991Z,12.40
2018-06-22T10:43:23.030Z,11.90
2018-06-22T10:44:22.949Z,13.60
2018-06-22T10:45:22.941Z,11.00
2018-06-22T10:46:22.909Z,12.60
2018-06-22T10:47:22.956Z,13.10
2018-06-22T10:48:22.864Z,10.90
2018-06-22T10:49:22.883Z,10.60
2018-06-22T10:50:22.820Z,11.10
2018-06-22T10:51:22.882Z,10.40
2018-06-22T10:52:22.782Z,10.30
2018-06-22T10:53:22.794Z,11.30
2018-06-22T10:54:22.739Z,10.90
2018-06-22T10:55:22.808Z,10.20
2018-06-22T10:56:22.699Z,9.10
2018-06-22T10:57:22.720Z,9.10
2018-06-22T10:58:22.650Z,11.10
2018-06-22T10:59:22.735Z,8.20
2018-06-22T11:00:22.608Z,8.10
2018-06-22T11:01:22.651Z,10.30
2018-06-22T11:02:22.564Z,9.50
2018-06-22T11:03:22.557Z,6.60
2018-06-22T11:04:22.523Z,8.90
2018-06-22T11:05:22.571Z,7.20
2018-06-22T11:06:22.479Z,8.70
2018-06-22T11:07:22.481Z,10.60
2018-06-22T11:08:22.441Z,7.70
2018-06-22T11:09:22.499Z,10.50
2018-06-22T11:10:22.404Z,9.30
2018-06-22T11:11:22.410Z,8.60
2018-06-22T11:12:22.353Z,9.50
2018-06-22T11:13:22.423Z,8.20
2018-06-22T11:14:22.318Z,8.60
2018-06-22T11:15:22.331Z,9.30
2018-06-22T11:16:22.274Z,9.10
2018-06-22T11:17:22.464Z,11.00
2018-06-22T11:18:22.278Z,10.10
2018-06-22T11:19:22.261Z,10.90
2018-06-22T11:20:22.188Z,10.30
2018-06-22T11:21:22.357Z,10.80
2018-06-22T11:22:22.149Z,10.10
2018-06-22T11:23:22.185Z,11.00
2018-06-22T11:24:22.105Z,6.90
2018-06-22T11:25:22.096Z,9.10
2018-06-22T11:26:22.060Z,11.90
2018-06-22T11:27:22.125Z,13.20
2018-06-22T11:28:22.023Z,9.40
2018-06-22T11:29:22.026Z,10.70
2018-06-22T11:30:21.981Z,12.20
2018-06-22T11:31:22.037Z,8.50
2018-06-22T11:32:21.944Z,11.30
2018-06-22T11:33:21.951Z,9.60
2018-06-22T11:34:21.895Z,9.70
2018-06-22T11:35:21.969Z,10.80
2018-06-22T11:36:21.870Z,11.20
2018-06-22T11:37:21.881Z,10.60
2018-06-22T11:38:21.812Z,6.60
2018-06-22T11:39:21.888Z,10.40
2018-06-22T11:40:21.777Z,7.80
2018-06-22T11:41:21.906Z,10.20
2018-06-22T11:42:21.729Z,9.70
2018-06-22T11:43:21.813Z,9.60
2018-06-22T11:44:21.701Z,10.90
2018-06-22T11:45:21.728Z,11.00
2018-06-22T11:46:21.648Z,9.80
2018-06-22T11:47:21.636Z,9.10
2018-06-22T11:48:21.606Z,8.00
2018-06-22T11:49:21.655Z,9.60
2018-06-22T11:50:21.582Z,9.90
2018-06-22T11:51:21.565Z,11.40
2018-06-22T11:52:21.524Z,9.40
2018-06-22T11:53:21.580Z,10.10
2018-06-22T11:54:21.487Z,8.60
2018-06-22T11:55:21.493Z,7.20
2018-06-22T11:56:21.442Z,7.40
2018-06-22T11:57:21.503Z,7.70
2018-06-22T11:58:21.405Z,8.20
2018-06-22T11:59:21.417Z,9.10
2018-06-22T12:00:21.369Z,6.20
2018-06-22T12:01:21.433Z,11.60
2018-06-22T12:02:21.326Z,8.50
2018-06-22T12:03:21.345Z,9.30
2018-06-22T12:04:21.294Z,8.90
2018-06-22T12:05:21.357Z,9.10
2018-06-22T12:06:21.248Z,9.00
2018-06-22T12:07:21.270Z,8.10
2018-06-22T12:08:21.206Z,9.90
2018-06-22T12:09:21.284Z,9.00
2018-06-22T12:10:21.172Z,10.00
2018-06-22T12:11:21.229Z,8.20
2018-06-22T12:12:21.130Z,9.60
2018-06-22T12:13:21.206Z,10.90
2018-06-22T12:14:21.095Z,8.00
2018-06-22T12:15:21.127Z,8.90
2018-06-22T12:16:21.059Z,7.10
2018-06-22T12:17:21.149Z,9.60
2018-06-22T12:18:21.017Z,8.40
2018-06-22T12:19:21.217Z,8.10
2018-06-22T12:20:20.968Z,6.20
2018-06-22T12:21:20.961Z,7.60
2018-06-22T12:22:20.925Z,8.50
2018-06-22T12:23:20.975Z,8.60
2018-06-22T12:24:20.887Z,8.60
2018-06-22T12:25:20.884Z,8.30
2018-06-22T12:26:20.844Z,8.60
2018-06-22T12:27:20.900Z,9.30
2018-06-22T12:28:20.808Z,6.90
2018-06-22T12:29:20.834Z,8.60
2018-06-22T12:30:20.795Z,7.70
2018-06-22T12:31:20.855Z,8.30
2018-06-22T12:32:20.726Z,11.10
2018-06-22T12:33:20.727Z,9.40
2018-06-22T12:34:20.684Z,9.10
2018-06-22T12:35:20.761Z,9.00
2018-06-22T12:36:20.643Z,8.60
2018-06-22T12:37:20.659Z,11.20
2018-06-22T12:38:20.612Z,7.70
2018-06-22T12:39:20.678Z,8.30
2018-06-22T12:40:20.553Z,9.00
2018-06-22T12:41:20.589Z,8.60
2018-06-22T12:42:20.522Z,8.30
2018-06-22T12:43:20.603Z,9.60
2018-06-22T12:44:20.478Z,8.90
2018-06-22T12:45:20.529Z,9.00
2018-06-22T12:46:20.429Z,9.30
2018-06-22T12:47:20.429Z,9.60
2018-06-22T12:48:20.388Z,9.10
2018-06-22T12:49:20.437Z,9.30
2018-06-22T12:50:20.355Z,8.60
2018-06-22T12:51:20.353Z,9.50
2018-06-22T12:52:20.300Z,10.20
2018-06-22T12:53:20.366Z,7.90
2018-06-22T12:54:20.256Z,11.60
2018-06-22T12:55:20.278Z,6.50
2018-06-22T12:56:20.257Z,9.40
2018-06-22T12:57:20.302Z,9.00
2018-06-22T12:58:20.170Z,11.30
2018-06-22T12:59:20.215Z,9.40
2018-06-22T13:00:20.132Z,6.70
2018-06-22T13:01:20.251Z,8.20
2018-06-22T13:02:20.092Z,7.90
2018-06-22T13:03:20.163Z,9.70
2018-06-22T13:04:20.049Z,9.40
2018-06-22T13:05:20.042Z,10.00
2018-06-22T13:06:20.001Z,9.00
2018-06-22T13:07:20.057Z,12.20